Terminal Aerodrome Forecast
Issued by NWS Caribou, ME

Home | Current Version | Previous Version | Text Only | Print | Product List | Glossary On
Versions: 1 2 3 4 5 6 7 8 9 10 11 12 13 14 15
361
FTUS41 KCAR 242320
TAFCAR
TAF
KCAR 242320Z 2500/2524 35007KT P6SM -RA OVC040
     FM250300 02007KT 3SM -RAPL OVC020
     FM250500 03007KT 3SM -FZRAPL OVC015
     FM251000 02008KT 2SM BR OVC008
     FM251300 11005KT 1SM -DZ BR OVC008
     FM252100 15009KT 1SM -DZ BR OVC008 WS020/18040KT=

USA.gov is the U.S. government's official web portal to all federal, state and local government web resources and services.